WAMM Airport Information

Runway Information
Runway 18 Length 8693 ft width 148 ft
Elevation 270 ft Threshold ft Heading 182
Runway 36 Length 8693 ft Width 148 ft
Elevation 264 ft Threshold ft Heading 2
Airport Frequencies
Type APP Name MANADO APP Frequency 119 MHZ
Type ATIS Name ATIS Frequency 126.4 MHZ
Type INFO Name MANADO INF Frequency 891.8 MHZ
Type TWR Name RATULANGI Frequency 118.1 MHZ
Airport Navaids
Type NDB Name Manado Frequency 255 KHZ
Type VOR-DME Name Manado Frequency 114200 KHZ
Type VOR-DME Name Manado Frequency 114800 KHZ
Type NDB Name Manado Frequency 290 KHZ
Airport Weather Information & NOTAM
ADDS - METARS form results

(2343 UTC 27 September 2022)
Data provider http://aviationweather.gov/metar/data/
 
METAR text: WAMM 272330Z VRB01KT 9999 FEW020 25/23 Q1009 NOSIG
Conditions at: WAMM (MENADO/SAM RATUL, ID) observed 2330 UTC 27 September 2022
Temperature: 25.0°C (77°F)
Dewpoint: 23.0°C (73°F) [RH = 89%]
Pressure (altimeter): 29.79 inches Hg (1009.0 mb)
Winds: variable direction winds at 1 MPH (1 knots; 0.5 m/s)
Visibility: 6 or more miles (10+ km)
Ceiling: at least 12,000 feet AGL
Clouds: few clouds at 2000 feet AGL
Weather: no significant weather observed at this time

METAR text: WAMM 272300Z VRB01KT 9999 FEW020 25/23 Q1009 NOSIG
Conditions at: WAMM (MENADO/SAM RATUL, ID) observed 2300 UTC 27 September 2022
Temperature: 25.0°C (77°F)
Dewpoint: 23.0°C (73°F) [RH = 89%]
Pressure (altimeter): 29.79 inches Hg (1009.0 mb)
Winds: variable direction winds at 1 MPH (1 knots; 0.5 m/s)
Visibility: 6 or more miles (10+ km)
Ceiling: at least 12,000 feet AGL
Clouds: few clouds at 2000 feet AGL
Weather: no significant weather observed at this time

Forecast for: WAMM (MENADO/SAM RATUL, ID)
Text: TAF WAMM 272300Z 2800/2906 16009KT 9999 SCT021
Forecast period: 0000 to 1000 UTC 28 September 2022
Forecast type: FROM: standard forecast or significant change
Winds: from the SSE (160 degrees) at 10 MPH (9 knots; 4.6 m/s)
Visibility: 6 or more miles (10+ km)
Ceiling: at least 12,000 feet AGL
Clouds: scattered clouds at 2100 feet AGL
Weather: no significant weather forecast for this period
Text: PROB40
Forecast period: 0600 to 0900 UTC 28 September 2022
Forecast type: TEMPORARY: The following changes expected for less than half the time period
Visibility: 3 miles (5 km)
Ceiling: at least 12,000 feet AGL
Clouds: few clouds at 1700 feet AGL
Weather: RA  (moderate rain)
Text: TEMPO 2806/2809 5000 RA FEW017CB
Forecast period: 1000 UTC 28 September 2022 to 0600 UTC 29 September 2022
Forecast type: BECOMING: Conditions expected to become as follows by 1200 UTC 28 September 2022
Winds: variable direction winds at 3 MPH (3 knots; 1.5 m/s)
Visibility: 6 or more miles (10+ km)
Ceiling: at least 12,000 feet AGL
Clouds: scattered clouds at 2100 feet AGL
Weather: no significant weather forecast for this period